createdAt,value
2018-12-17T00:01:07.734Z,1.60
2018-12-17T00:03:38.792Z,1.60
2018-12-17T00:06:09.973Z,1.60
2018-12-17T00:08:39.230Z,1.70
2018-12-17T00:11:09.341Z,1.60
2018-12-17T00:13:38.387Z,1.60
2018-12-17T00:16:07.434Z,1.60
2018-12-17T00:18:36.459Z,1.70
2018-12-17T00:21:05.496Z,1.70
2018-12-17T00:23:34.507Z,1.70
2018-12-17T00:26:03.626Z,1.70
2018-12-17T00:28:32.614Z,1.70
2018-12-17T00:31:02.283Z,1.70
2018-12-17T00:33:31.310Z,1.70
2018-12-17T00:36:00.335Z,1.60
2018-12-17T00:38:29.372Z,1.60
2018-12-17T00:40:58.361Z,1.50
2018-12-17T00:43:27.525Z,1.40
2018-12-17T00:45:56.519Z,1.40
2018-12-17T00:48:25.908Z,1.30
2018-12-17T00:50:54.946Z,1.30
2018-12-17T00:53:24.063Z,1.30
2018-12-17T00:55:53.192Z,1.20
2018-12-17T00:58:23.177Z,1.20
2018-12-17T01:00:52.222Z,1.20
2018-12-17T01:03:21.314Z,1.20
2018-12-17T01:05:51.323Z,1.20
2018-12-17T01:08:21.038Z,1.20
2018-12-17T01:10:53.043Z,1.10
2018-12-17T01:13:22.791Z,1.10
2018-12-17T01:15:51.798Z,1.10
2018-12-17T01:18:20.819Z,1.10
2018-12-17T01:20:49.930Z,1.10
2018-12-17T01:23:18.958Z,1.20
2018-12-17T01:25:48.078Z,1.10
2018-12-17T01:28:22.186Z,1.10
2018-12-17T01:30:48.169Z,1.10
2018-12-17T01:33:17.192Z,1.10
2018-12-17T01:35:46.224Z,1.20
2018-12-17T01:38:15.270Z,1.20
2018-12-17T01:40:44.283Z,1.20
2018-12-17T01:43:13.282Z,1.20
2018-12-17T01:45:42.430Z,1.20
2018-12-17T01:48:11.601Z,1.30
2018-12-17T01:50:40.619Z,1.30
2018-12-17T01:53:09.687Z,1.30
2018-12-17T01:55:38.708Z,1.30
2018-12-17T01:58:07.834Z,1.30
2018-12-17T02:00:36.867Z,1.30
2018-12-17T02:03:06.020Z,1.30
2018-12-17T02:05:35.286Z,1.30
2018-12-17T02:08:04.438Z,1.30
2018-12-17T02:10:33.472Z,1.30
2018-12-17T02:13:02.507Z,1.30
2018-12-17T02:15:31.529Z,1.30
2018-12-17T02:18:00.559Z,1.30
2018-12-17T02:20:29.590Z,1.30
2018-12-17T02:22:58.643Z,1.30
2018-12-17T02:25:27.662Z,1.30
2018-12-17T02:27:56.731Z,1.30
2018-12-17T02:30:25.792Z,1.30
2018-12-17T02:32:54.927Z,1.30
2018-12-17T02:35:25.225Z,1.30
2018-12-17T02:37:54.464Z,1.30
2018-12-17T02:40:23.959Z,1.30
2018-12-17T02:42:53.046Z,1.40
2018-12-17T02:45:22.644Z,1.40
2018-12-17T02:47:51.655Z,1.40
2018-12-17T02:50:20.662Z,1.40
2018-12-17T02:52:49.694Z,1.40
2018-12-17T02:55:18.681Z,1.50
2018-12-17T02:57:47.710Z,1.50
2018-12-17T03:00:17.434Z,1.50
2018-12-17T03:02:46.443Z,1.60
2018-12-17T03:05:15.512Z,1.60
2018-12-17T03:07:44.585Z,1.60
2018-12-17T03:10:13.632Z,1.60
2018-12-17T03:12:42.633Z,1.60
2018-12-17T03:15:11.666Z,1.60
2018-12-17T03:17:40.750Z,1.60
2018-12-17T03:20:09.880Z,1.60
2018-12-17T03:22:39.463Z,1.60
2018-12-17T03:25:09.583Z,1.70
2018-12-17T03:27:38.852Z,1.80
2018-12-17T03:30:08.097Z,1.80
2018-12-17T03:32:37.183Z,1.80
2018-12-17T03:35:06.526Z,1.80
2018-12-17T03:37:35.769Z,1.80
2018-12-17T03:40:05.768Z,1.80
2018-12-17T03:42:34.775Z,1.90
2018-12-17T03:45:04.152Z,1.90
2018-12-17T03:47:33.255Z,2.00
2018-12-17T03:50:04.058Z,2.00
2018-12-17T03:52:33.102Z,2.10
2018-12-17T03:55:02.124Z,2.10
2018-12-17T03:57:31.329Z,2.10
2018-12-17T04:00:01.378Z,2.20
2018-12-17T04:02:32.018Z,2.20
2018-12-17T04:05:01.339Z,2.20
2018-12-17T04:07:31.455Z,2.20
2018-12-17T04:10:01.034Z,2.20
2018-12-17T04:12:30.095Z,2.20
2018-12-17T04:14:59.168Z,2.20
2018-12-17T04:17:28.262Z,2.20
2018-12-17T04:19:57.822Z,2.20
2018-12-17T04:22:26.828Z,2.20
2018-12-17T04:24:55.849Z,2.30
2018-12-17T04:27:24.868Z,2.30
2018-12-17T04:29:53.858Z,2.30
2018-12-17T04:32:22.886Z,2.40
2018-12-17T04:34:52.023Z,2.30
2018-12-17T04:37:21.776Z,2.30
2018-12-17T04:39:50.780Z,2.40
2018-12-17T04:42:19.807Z,2.40
2018-12-17T04:44:48.895Z,2.40
2018-12-17T04:47:17.920Z,2.40
2018-12-17T04:49:46.916Z,2.40
2018-12-17T04:52:15.919Z,2.30
2018-12-17T04:54:44.927Z,2.30
2018-12-17T04:57:13.935Z,2.30
2018-12-17T04:59:43.371Z,2.30
2018-12-17T05:02:12.412Z,2.30
2018-12-17T05:04:41.446Z,2.30
2018-12-17T05:07:10.426Z,2.30
2018-12-17T05:09:40.134Z,2.30
2018-12-17T05:12:09.142Z,2.30
2018-12-17T05:14:38.239Z,2.40
2018-12-17T05:17:07.346Z,2.30
2018-12-17T05:19:36.346Z,2.30
2018-12-17T05:22:05.400Z,2.40
2018-12-17T05:24:35.072Z,2.40
2018-12-17T05:27:04.263Z,2.40
2018-12-17T05:29:33.267Z,2.40
2018-12-17T05:32:02.278Z,2.50
2018-12-17T05:34:31.300Z,2.50
2018-12-17T05:37:00.312Z,2.50
2018-12-17T05:39:29.338Z,2.60
2018-12-17T05:41:58.336Z,2.60
2018-12-17T05:44:27.358Z,2.60
2018-12-17T05:46:56.390Z,2.60
2018-12-17T05:49:25.425Z,2.50
2018-12-17T05:51:54.540Z,2.50
2018-12-17T05:54:23.550Z,2.60
2018-12-17T05:56:52.576Z,2.60
2018-12-17T05:59:28.367Z,2.60
2018-12-17T06:01:52.614Z,2.60
2018-12-17T06:04:21.625Z,2.60
2018-12-17T06:06:50.637Z,2.60
2018-12-17T06:09:19.903Z,2.60
2018-12-17T06:11:48.931Z,2.60
2018-12-17T06:14:17.959Z,2.60
2018-12-17T06:16:46.949Z,2.60
2018-12-17T06:19:16.016Z,2.60
2018-12-17T06:21:45.027Z,2.60
2018-12-17T06:24:14.046Z,2.70
2018-12-17T06:26:43.067Z,2.60
2018-12-17T06:29:12.098Z,2.70
2018-12-17T06:31:41.127Z,2.70
2018-12-17T06:34:10.159Z,2.70
2018-12-17T06:36:39.150Z,2.70
2018-12-17T06:39:08.635Z,2.70
2018-12-17T06:41:37.659Z,2.70
2018-12-17T06:44:06.687Z,2.80
2018-12-17T06:46:35.871Z,2.80
2018-12-17T06:49:05.058Z,2.80
2018-12-17T06:51:34.293Z,2.70
2018-12-17T06:54:03.430Z,2.80
2018-12-17T06:56:32.466Z,2.80
2018-12-17T06:59:01.525Z,2.80
2018-12-17T07:01:30.654Z,2.80
2018-12-17T07:03:59.699Z,2.90
2018-12-17T07:06:28.704Z,2.90
2018-12-17T07:08:57.707Z,2.90
2018-12-17T07:11:26.750Z,2.90
2018-12-17T07:13:55.762Z,3.00
2018-12-17T07:16:24.782Z,3.00
2018-12-17T07:18:53.808Z,3.00
2018-12-17T07:21:22.807Z,3.00
2018-12-17T07:23:51.822Z,3.00
2018-12-17T07:26:20.821Z,3.00
2018-12-17T07:28:49.864Z,3.00
2018-12-17T07:31:19.002Z,3.00
2018-12-17T07:33:48.014Z,3.10
2018-12-17T07:36:17.368Z,3.10
2018-12-17T07:38:46.391Z,3.10
2018-12-17T07:41:15.409Z,3.10
2018-12-17T07:43:44.649Z,3.20
2018-12-17T07:46:13.659Z,3.20
2018-12-17T07:48:42.699Z,3.30
2018-12-17T07:51:11.813Z,3.30
2018-12-17T07:53:40.839Z,3.30
2018-12-17T07:56:09.850Z,3.30
2018-12-17T07:58:38.877Z,3.30
2018-12-17T08:01:07.951Z,3.40
2018-12-17T08:03:37.110Z,3.40
2018-12-17T08:06:06.119Z,3.40
2018-12-17T08:08:35.535Z,3.40
2018-12-17T08:11:04.834Z,3.50
2018-12-17T08:13:33.970Z,3.50
2018-12-17T08:16:03.047Z,3.50
2018-12-17T08:18:32.074Z,3.60
2018-12-17T08:21:01.114Z,3.60
2018-12-17T08:23:30.132Z,3.70
2018-12-17T08:25:59.110Z,3.70
2018-12-17T08:28:28.143Z,3.70
2018-12-17T08:30:57.123Z,3.70
2018-12-17T08:33:26.155Z,3.80
2018-12-17T08:35:55.321Z,3.70
2018-12-17T08:38:24.360Z,3.80
2018-12-17T08:40:53.470Z,3.80
2018-12-17T08:43:22.487Z,3.80
2018-12-17T08:45:51.528Z,3.90
2018-12-17T08:48:20.507Z,3.90
2018-12-17T08:50:49.551Z,3.90
2018-12-17T08:53:18.540Z,4.00
2018-12-17T08:55:47.559Z,4.00
2018-12-17T08:58:16.566Z,4.00
2018-12-17T09:00:45.586Z,4.10
2018-12-17T09:03:14.606Z,4.10
2018-12-17T09:05:43.611Z,4.20
2018-12-17T09:08:12.637Z,4.30
2018-12-17T09:10:41.622Z,4.30
2018-12-17T09:13:10.631Z,4.40
2018-12-17T09:15:39.658Z,4.40
2018-12-17T09:18:08.701Z,4.40
2018-12-17T09:20:37.702Z,4.50
2018-12-17T09:23:06.873Z,4.50
2018-12-17T09:25:35.864Z,4.50
2018-12-17T09:28:05.068Z,4.60
2018-12-17T09:30:41.127Z,4.70
2018-12-17T09:33:05.089Z,4.70
2018-12-17T09:35:34.128Z,4.80
2018-12-17T09:38:03.148Z,4.90
2018-12-17T09:40:32.290Z,4.90
2018-12-17T09:43:01.364Z,5.00
2018-12-17T09:45:30.441Z,5.20
2018-12-17T09:47:59.593Z,5.40
2018-12-17T09:50:28.626Z,5.50
2018-12-17T09:52:57.664Z,5.60
2018-12-17T09:55:26.709Z,5.70
2018-12-17T09:57:55.733Z,5.80
2018-12-17T10:00:25.544Z,5.80
2018-12-17T10:02:54.894Z,5.90
2018-12-17T10:05:23.962Z,5.90
2018-12-17T10:07:53.034Z,6.00
2018-12-17T10:10:22.087Z,6.00
2018-12-17T10:12:51.091Z,6.10
2018-12-17T10:15:20.115Z,6.20
2018-12-17T10:17:49.126Z,6.40
2018-12-17T10:20:18.166Z,6.40
2018-12-17T10:22:47.551Z,6.50
2018-12-17T10:25:16.542Z,6.60
2018-12-17T10:27:45.575Z,6.70
2018-12-17T10:30:14.619Z,6.80
2018-12-17T10:32:43.597Z,6.90
2018-12-17T10:35:12.611Z,7.00
2018-12-17T10:37:41.610Z,7.20
2018-12-17T10:40:10.966Z,7.50
2018-12-17T10:42:39.951Z,7.80
2018-12-17T10:45:09.454Z,7.80
2018-12-17T10:47:38.466Z,7.70
2018-12-17T10:50:07.690Z,7.70
2018-12-17T10:52:36.688Z,7.80
2018-12-17T10:55:05.951Z,8.00
2018-12-17T10:57:34.998Z,7.70
2018-12-17T11:00:04.883Z,7.50
2018-12-17T11:02:34.855Z,7.40
2018-12-17T11:05:11.862Z,7.30
2018-12-17T11:07:40.871Z,7.30
2018-12-17T11:10:10.411Z,7.20
2018-12-17T11:12:39.538Z,7.20
2018-12-17T11:15:10.403Z,7.10
2018-12-17T11:17:39.756Z,7.10
2018-12-17T11:20:10.145Z,7.10
2018-12-17T11:22:40.266Z,7.10
2018-12-17T11:25:09.531Z,7.10
2018-12-17T11:27:38.574Z,7.00
2018-12-17T11:30:10.130Z,6.90
2018-12-17T11:32:43.444Z,6.90
2018-12-17T11:35:12.798Z,7.00
2018-12-17T11:37:41.782Z,7.00
2018-12-17T11:40:10.911Z,7.00
2018-12-17T11:42:39.927Z,6.90
2018-12-17T11:45:09.187Z,6.90
2018-12-17T11:47:38.238Z,6.90
2018-12-17T11:50:07.954Z,6.80
2018-12-17T11:52:36.968Z,6.90
2018-12-17T11:55:07.086Z,6.80
2018-12-17T11:57:48.387Z,6.80
2018-12-17T12:00:19.737Z,6.80
2018-12-17T12:02:48.822Z,6.90
2018-12-17T12:05:17.883Z,6.90
2018-12-17T12:07:46.882Z,6.90
2018-12-17T12:10:15.908Z,6.90
2018-12-17T12:12:44.939Z,7.00
2018-12-17T12:15:13.954Z,7.00
2018-12-17T12:17:43.970Z,7.10
2018-12-17T12:20:13.104Z,7.30
2018-12-17T12:22:42.105Z,7.30
2018-12-17T12:25:11.118Z,7.40
2018-12-17T12:27:40.735Z,7.30
2018-12-17T12:30:10.885Z,7.20
2018-12-17T12:32:39.966Z,7.10
2018-12-17T12:35:10.903Z,7.10
2018-12-17T12:37:39.918Z,7.00
2018-12-17T12:40:09.091Z,6.90
2018-12-17T12:42:38.113Z,6.90
2018-12-17T12:45:07.683Z,6.90
2018-12-17T12:47:36.715Z,6.90
2018-12-17T12:50:06.591Z,7.00
2018-12-17T12:52:35.596Z,7.00
2018-12-17T12:55:05.434Z,6.90
2018-12-17T12:57:35.447Z,6.90
2018-12-17T13:00:07.451Z,6.80
2018-12-17T13:02:36.579Z,6.70
2018-12-17T13:05:05.769Z,6.70
2018-12-17T13:07:34.819Z,6.70
2018-12-17T13:10:05.059Z,6.70
2018-12-17T13:12:34.090Z,6.60
2018-12-17T13:15:03.150Z,6.60
2018-12-17T13:17:32.143Z,6.60
2018-12-17T13:20:01.135Z,6.50
2018-12-17T13:22:30.124Z,6.60
2018-12-17T13:24:59.127Z,6.60
2018-12-17T13:27:29.117Z,6.60
2018-12-17T13:29:58.110Z,6.60
2018-12-17T13:32:28.163Z,6.60
2018-12-17T13:34:57.153Z,6.60
2018-12-17T13:37:26.141Z,6.60
2018-12-17T13:39:55.174Z,6.60
2018-12-17T13:42:24.434Z,6.70
2018-12-17T13:44:53.733Z,6.70
2018-12-17T13:47:22.767Z,6.70
2018-12-17T13:49:51.774Z,6.70
2018-12-17T13:52:26.200Z,6.80
2018-12-17T13:54:55.207Z,6.80
2018-12-17T13:57:24.347Z,6.90
2018-12-17T13:59:53.390Z,6.90
2018-12-17T14:02:23.268Z,6.90
2018-12-17T14:04:52.339Z,7.10
2018-12-17T14:07:21.343Z,7.10
2018-12-17T14:09:55.780Z,7.20
2018-12-17T14:12:24.855Z,7.20
2018-12-17T14:14:53.912Z,7.20
2018-12-17T14:17:28.111Z,7.20
2018-12-17T14:20:02.262Z,7.20
2018-12-17T14:22:31.286Z,7.20
2018-12-17T14:25:00.288Z,7.30
2018-12-17T14:27:29.339Z,7.30
2018-12-17T14:29:58.369Z,7.30
2018-12-17T14:32:27.412Z,7.30
2018-12-17T14:34:56.419Z,7.30
2018-12-17T14:37:25.454Z,7.30
2018-12-17T14:39:54.484Z,7.30
2018-12-17T14:42:23.525Z,7.30
2018-12-17T14:44:52.619Z,7.40
2018-12-17T14:47:21.599Z,7.40
2018-12-17T14:49:50.626Z,7.30
2018-12-17T14:52:19.660Z,7.40
2018-12-17T14:54:48.708Z,7.40
2018-12-17T14:57:17.771Z,7.40
2018-12-17T14:59:46.815Z,7.40
2018-12-17T15:02:16.843Z,7.40
2018-12-17T15:04:45.891Z,7.40
2018-12-17T15:07:14.899Z,7.40
2018-12-17T15:09:43.970Z,7.40
2018-12-17T15:12:13.025Z,7.40
2018-12-17T15:14:42.060Z,7.40
2018-12-17T15:17:11.069Z,7.40
2018-12-17T15:19:40.100Z,7.40
2018-12-17T15:22:09.090Z,7.40
2018-12-17T15:24:40.472Z,7.40
2018-12-17T15:27:09.106Z,7.40
2018-12-17T15:29:38.177Z,7.20
2018-12-17T15:32:07.306Z,7.20
2018-12-17T15:34:36.306Z,7.10
2018-12-17T15:37:05.350Z,7.00
2018-12-17T15:39:34.433Z,7.00
2018-12-17T15:42:03.587Z,6.90
2018-12-17T15:44:32.647Z,6.80
2018-12-17T15:47:01.712Z,6.80
2018-12-17T15:49:30.744Z,6.70
2018-12-17T15:51:59.752Z,6.70
2018-12-17T15:54:28.799Z,6.60
2018-12-17T15:56:57.857Z,6.60
2018-12-17T15:59:26.894Z,6.70
2018-12-17T16:01:55.929Z,6.70
2018-12-17T16:04:25.012Z,6.70
2018-12-17T16:06:54.077Z,6.70
2018-12-17T16:09:23.277Z,6.70
2018-12-17T16:11:52.280Z,6.80
2018-12-17T16:14:21.310Z,6.80
2018-12-17T16:16:50.359Z,6.70
2018-12-17T16:19:19.396Z,6.70
2018-12-17T16:21:48.597Z,6.60
2018-12-17T16:24:17.745Z,6.50
2018-12-17T16:26:46.887Z,6.40
2018-12-17T16:29:15.978Z,6.30
2018-12-17T16:31:44.999Z,6.30
2018-12-17T16:34:14.026Z,6.20
2018-12-17T16:36:43.298Z,6.00
2018-12-17T16:39:12.315Z,6.00
2018-12-17T16:41:41.344Z,5.90
2018-12-17T16:44:10.353Z,5.80
2018-12-17T16:46:39.500Z,5.80
2018-12-17T16:49:08.492Z,5.80
2018-12-17T16:51:37.632Z,5.80
2018-12-17T16:54:06.811Z,5.70
2018-12-17T16:56:35.833Z,5.70
2018-12-17T16:59:04.917Z,5.80
2018-12-17T17:01:33.988Z,5.70
2018-12-17T17:04:03.066Z,5.70
2018-12-17T17:06:32.115Z,5.70
2018-12-17T17:09:01.146Z,5.70
2018-12-17T17:11:30.339Z,5.60
2018-12-17T17:13:59.388Z,5.50
2018-12-17T17:16:28.454Z,5.50
2018-12-17T17:18:57.543Z,5.40
2018-12-17T17:21:26.611Z,5.30
2018-12-17T17:24:02.189Z,5.30
2018-12-17T17:26:31.218Z,5.20
2018-12-17T17:29:00.264Z,5.30
2018-12-17T17:31:29.263Z,5.20
2018-12-17T17:33:58.322Z,5.20
2018-12-17T17:36:27.343Z,5.20
2018-12-17T17:38:56.343Z,5.30
2018-12-17T17:41:25.371Z,5.30
2018-12-17T17:43:54.504Z,5.20
2018-12-17T17:46:23.523Z,5.20
2018-12-17T17:48:52.560Z,5.10
2018-12-17T17:51:21.723Z,5.10
2018-12-17T17:53:50.787Z,5.20
2018-12-17T17:56:19.846Z,5.20
2018-12-17T17:58:48.862Z,5.10
2018-12-17T18:01:18.050Z,5.10
2018-12-17T18:03:47.120Z,5.10
2018-12-17T18:06:16.637Z,5.00
2018-12-17T18:08:45.724Z,5.00
2018-12-17T18:11:14.882Z,4.90
2018-12-17T18:13:43.910Z,4.90
2018-12-17T18:16:12.959Z,4.90
2018-12-17T18:18:42.000Z,4.90
2018-12-17T18:21:11.030Z,5.00
2018-12-17T18:23:40.054Z,5.10
2018-12-17T18:26:09.074Z,5.10
2018-12-17T18:28:38.137Z,5.00
2018-12-17T18:31:07.187Z,5.00
2018-12-17T18:33:36.202Z,4.90
2018-12-17T18:36:05.233Z,4.90
2018-12-17T18:38:34.282Z,5.00
2018-12-17T18:41:03.375Z,5.10
2018-12-17T18:43:32.443Z,5.00
2018-12-17T18:46:01.494Z,5.10
2018-12-17T18:48:30.510Z,5.10
2018-12-17T18:50:59.556Z,5.20
2018-12-17T18:53:28.614Z,5.30
2018-12-17T18:55:57.660Z,5.30
2018-12-17T18:58:26.695Z,5.40
2018-12-17T19:00:55.780Z,5.40
2018-12-17T19:03:24.826Z,5.40
2018-12-17T19:05:54.063Z,5.30
2018-12-17T19:08:23.079Z,5.30
2018-12-17T19:10:52.177Z,5.20
2018-12-17T19:13:21.240Z,5.20
2018-12-17T19:15:50.423Z,5.10
2018-12-17T19:18:19.626Z,5.30
2018-12-17T19:20:48.983Z,5.20
2018-12-17T19:23:18.050Z,5.20
2018-12-17T19:25:47.094Z,5.30
2018-12-17T19:28:16.123Z,5.20
2018-12-17T19:30:45.289Z,5.20
2018-12-17T19:33:14.363Z,5.20
2018-12-17T19:35:43.357Z,5.20
2018-12-17T19:38:12.414Z,5.20
2018-12-17T19:40:41.485Z,5.10
2018-12-17T19:43:11.635Z,5.00
2018-12-17T19:45:40.814Z,5.00
2018-12-17T19:48:09.834Z,5.00
2018-12-17T19:50:39.000Z,5.00
2018-12-17T19:53:08.038Z,5.00
2018-12-17T19:55:37.065Z,5.10
2018-12-17T19:58:06.139Z,5.20
2018-12-17T20:00:35.306Z,5.20
2018-12-17T20:03:05.474Z,5.20
2018-12-17T20:05:34.514Z,5.30
2018-12-17T20:08:03.631Z,5.30
2018-12-17T20:10:32.687Z,5.40
2018-12-17T20:13:01.819Z,5.40
2018-12-17T20:15:30.948Z,5.50
2018-12-17T20:17:59.969Z,5.50
2018-12-17T20:20:29.104Z,5.50
2018-12-17T20:22:58.158Z,5.60
2018-12-17T20:25:28.156Z,5.50
2018-12-17T20:27:57.255Z,5.50
2018-12-17T20:30:27.004Z,5.50
2018-12-17T20:32:56.007Z,5.50
2018-12-17T20:35:25.038Z,5.40
2018-12-17T20:37:54.098Z,5.50
2018-12-17T20:40:23.175Z,5.40
2018-12-17T20:42:52.286Z,5.50
2018-12-17T20:45:21.423Z,5.50
2018-12-17T20:47:50.516Z,5.50
2018-12-17T20:50:19.578Z,5.50
2018-12-17T20:52:48.597Z,5.50
2018-12-17T20:55:17.727Z,5.30
2018-12-17T20:57:46.779Z,5.40
2018-12-17T21:00:15.928Z,5.40
2018-12-17T21:02:45.385Z,5.30
2018-12-17T21:05:14.544Z,5.40
2018-12-17T21:07:43.705Z,5.30
2018-12-17T21:10:12.827Z,5.30
2018-12-17T21:12:41.908Z,5.30
2018-12-17T21:15:11.132Z,5.20
2018-12-17T21:17:40.203Z,5.10
2018-12-17T21:20:09.411Z,5.10
2018-12-17T21:22:38.922Z,5.10
2018-12-17T21:25:08.202Z,5.00
2018-12-17T21:27:38.387Z,5.10
2018-12-17T21:30:08.562Z,5.00
2018-12-17T21:32:37.606Z,5.00
2018-12-17T21:35:07.167Z,5.00
2018-12-17T21:37:36.435Z,5.10
2018-12-17T21:40:05.990Z,5.00
2018-12-17T21:42:34.998Z,4.90
2018-12-17T21:45:06.579Z,4.90
2018-12-17T21:47:35.583Z,4.90
2018-12-17T21:50:05.870Z,4.80
2018-12-17T21:52:34.898Z,4.80
2018-12-17T21:55:04.472Z,4.80
2018-12-17T21:57:34.639Z,4.80
2018-12-17T22:00:04.851Z,4.70
2018-12-17T22:02:35.285Z,4.70
2018-12-17T22:05:04.922Z,4.90
2018-12-17T22:07:33.942Z,4.90
2018-12-17T22:10:04.903Z,4.90
2018-12-17T22:12:33.927Z,5.00
2018-12-17T22:15:03.090Z,5.10
2018-12-17T22:17:32.114Z,5.10
2018-12-17T22:20:01.160Z,5.20
2018-12-17T22:22:30.323Z,5.30
2018-12-17T22:24:59.480Z,5.40
2018-12-17T22:27:28.530Z,5.40
2018-12-17T22:29:57.614Z,5.30
2018-12-17T22:32:26.603Z,5.40
2018-12-17T22:34:56.794Z,5.40
2018-12-17T22:37:25.839Z,5.40
2018-12-17T22:39:56.396Z,5.40
2018-12-17T22:42:25.395Z,5.50
2018-12-17T22:44:54.403Z,5.50
2018-12-17T22:47:23.427Z,5.60
2018-12-17T22:49:52.446Z,5.50
2018-12-17T22:52:21.490Z,5.50
2018-12-17T22:54:50.491Z,5.50
2018-12-17T22:57:19.911Z,5.50
2018-12-17T22:59:48.892Z,5.50
2018-12-17T23:02:18.012Z,5.40
2018-12-17T23:04:48.175Z,5.40
2018-12-17T23:07:17.185Z,5.40
2018-12-17T23:09:57.354Z,5.30
2018-12-17T23:12:37.467Z,5.20
2018-12-17T23:15:17.706Z,5.20
2018-12-17T23:17:45.709Z,5.20
2018-12-17T23:20:14.895Z,5.20
2018-12-17T23:22:46.008Z,5.20
2018-12-17T23:25:17.010Z,5.10
2018-12-17T23:27:49.914Z,5.20
2018-12-17T23:30:21.967Z,5.10
2018-12-17T23:32:50.952Z,5.20
2018-12-17T23:35:19.943Z,5.10
2018-12-17T23:37:48.934Z,5.10
2018-12-17T23:40:17.981Z,5.20
2018-12-17T23:42:46.986Z,5.20
2018-12-17T23:45:19.716Z,5.30
2018-12-17T23:47:48.957Z,5.30
2018-12-17T23:50:18.074Z,5.20
2018-12-17T23:52:47.091Z,5.20
2018-12-17T23:55:16.095Z,5.20
2018-12-17T23:57:45.109Z,5.30
